首页
METAR-TAF:

METAR-TAF

机场 :

Daniel Field Airport

奥古斯塔, 喬治亞, 美国

纬度: 33-28-01N, 经度: 082-02-19W, 海拔: 128米

当前天气观测

该预报发布于1小时和2分钟前的09:53 UTC
风速5节,风向西北
温度 13°C
湿度 67%
气压 1018 hPa
能見度: 16.1公里
天空无云

METAR: KDNL 210953Z AUTO 31005KT 10SM CLR 13/07 A3006 RMK AO2 SLP174 T01330067

时间: 06:55 (10:55 UTC)

预报

该预报发布于2小时和6分钟前的08:49 UTC
预报有效从21日的 09点(UTC)到 22日的 06点(UTC)
风速8节,风向西北
能見度: 10公里
天空无云
从 21日的 1400点(UTC)
风速10节,风向,有时为18节阵风
能見度: 10公里
天空无云
从 21日的 1800点(UTC)
风速9节,风向
能見度: 10公里
天空无云
从 21日的 2300点(UTC)
风速4节,风向北转东北
能見度: 10公里
天空无云

TAF: KDNL 210849Z 2109/2206 32008KT P6SM SKC WS015/33034KT FM211400 36010G18KT P6SM SKC FM211800 35009KT P6SM SKC FM212300 02004KT P6SM SKC

超过4000个机场的气象观测和天气预报(METAR&TAF报告)。

可查询的气象台以黄色和红色小点在地图上表示。

将鼠标移到小点上方,可查看气象台名称。

然后点击查看天气观测和预报。

如需切换地图:点击带黑十字的绿色按钮放大地图;点击带横线的绿色按钮缩小地图;或者点击绿色箭头查看邻近地区的地图。


METAR-TAF: